Time;durP1;ratioP1;P1;durP2;ratioP2;P2;SDS_P1;SDS_P2;PMS_P1;PMS_P2;Temp;Humidity;BMP_temperature;BMP_pressure;BME280_temperature;BME280_humidity;BME280_pressure;Samples;Min_cycle;Max_cycle;Signal;HPM_P1;HPM_P2
2024/01/04 00:02:07;;;;;;;2.78;0.88;;;;;;;8.75;53.35;99065.56;4950145;28;20049;-87
2024/01/04 00:04:36;;;;;;;2.53;0.90;;;;;;;8.74;53.16;99069.31;4961328;28;20058;-86
2024/01/04 00:07:04;;;;;;;2.10;0.88;;;;;;;8.74;53.14;99071.19;4963351;28;20117;-86
2024/01/04 00:09:33;;;;;;;2.55;1.00;;;;;;;8.71;53.14;99073.22;4972970;28;20062;-86
2024/01/04 00:12:01;;;;;;;2.35;0.90;;;;;;;8.74;53.16;99080.22;4974986;28;20043;-86
2024/01/04 00:14:29;;;;;;;2.45;0.88;;;;;;;8.73;53.24;99078.50;4943897;28;20455;-87
2024/01/04 00:16:57;;;;;;;2.75;1.00;;;;;;;8.74;53.37;99088.41;4962898;28;20066;-86
2024/01/04 00:19:25;;;;;;;2.80;1.10;;;;;;;8.74;52.59;99084.81;4959075;28;20061;-86
2024/01/04 00:21:55;;;;;;;2.65;0.90;;;;;;;8.75;53.02;99102.88;4957287;28;20071;-87
2024/01/04 00:24:23;;;;;;;2.67;1.23;;;;;;;8.73;53.25;99099.47;4955328;28;20047;-85
2024/01/04 00:26:51;;;;;;;2.50;1.02;;;;;;;8.73;52.92;99111.22;4944755;28;20066;-87
2024/01/04 00:29:19;;;;;;;1.45;0.88;;;;;;;8.73;52.92;99103.06;4947197;28;20051;-86
2024/01/04 00:31:48;;;;;;;2.08;1.00;;;;;;;8.69;53.09;99102.50;4963161;28;20043;-86
2024/01/04 00:34:16;;;;;;;3.10;1.02;;;;;;;8.73;52.73;99115.84;4963394;28;20089;-86
2024/01/04 00:36:45;;;;;;;3.13;1.10;;;;;;;8.70;53.19;99119.72;4951642;28;20039;-86
2024/01/04 00:39:14;;;;;;;3.65;1.10;;;;;;;8.72;53.01;99123.16;4956972;28;20072;-86
2024/01/04 00:41:42;;;;;;;1.75;0.80;;;;;;;8.71;53.23;99127.75;4972858;28;20487;-86
2024/01/04 00:44:11;;;;;;;2.35;1.10;;;;;;;8.70;53.11;99125.19;4950186;28;20066;-87
2024/01/04 00:46:39;;;;;;;3.05;1.20;;;;;;;8.68;53.10;99132.66;4959827;28;20039;-87
2024/01/04 00:49:07;;;;;;;2.20;1.02;;;;;;;8.66;53.17;99127.41;4960184;28;20054;-86
2024/01/04 00:51:35;;;;;;;1.98;0.90;;;;;;;8.71;52.92;99137.81;4972844;28;20051;-87
2024/01/04 00:54:07;;;;;;;2.90;1.17;;;;;;;8.71;52.94;99146.00;4957912;28;20031;-87
2024/01/04 00:56:37;;;;;;;2.22;1.10;;;;;;;8.72;52.94;99153.16;4973602;28;20050;-87
2024/01/04 00:59:06;;;;;;;3.97;1.27;;;;;;;8.69;53.10;99157.06;4971493;28;20331;-85
2024/01/04 01:01:36;;;;;;;2.75;1.50;;;;;;;8.70;53.38;99158.78;4971896;28;20039;-86
2024/01/04 01:04:05;;;;;;;3.15;1.35;;;;;;;8.69;53.36;99159.78;4951055;28;20047;-86
2024/01/04 01:06:36;;;;;;;4.65;1.30;;;;;;;8.70;53.56;99161.50;4949867;28;20129;-86
2024/01/04 01:09:05;;;;;;;1.98;1.10;;;;;;;8.69;53.09;99175.28;4965047;28;20102;-86
2024/01/04 01:11:37;;;;;;;3.28;1.40;;;;;;;8.71;53.38;99178.72;4957382;28;20122;-87
2024/01/04 01:14:05;;;;;;;3.38;1.50;;;;;;;8.67;53.39;99171.91;4963874;28;20134;-86
2024/01/04 01:16:34;;;;;;;3.15;1.50;;;;;;;8.70;53.25;99177.88;4958049;28;20047;-86
2024/01/04 01:19:02;;;;;;;2.40;1.42;;;;;;;8.70;53.36;99180.59;4972825;28;20169;-87
2024/01/04 01:21:31;;;;;;;3.53;1.77;;;;;;;8.70;53.09;99183.31;4957199;28;20066;-87
2024/01/04 01:24:00;;;;;;;3.75;1.60;;;;;;;8.71;53.36;99189.63;4975441;28;20057;-86
2024/01/04 01:26:28;;;;;;;5.75;1.60;;;;;;;8.73;53.27;99201.25;4955259;28;20047;-87
2024/01/04 01:28:57;;;;;;;2.67;1.48;;;;;;;8.70;53.10;99193.38;4951474;28;20130;-86
2024/01/04 01:31:25;;;;;;;3.13;1.50;;;;;;;8.72;53.51;99213.16;4954867;28;20487;-86
2024/01/04 01:33:53;;;;;;;3.42;1.40;;;;;;;8.73;53.45;99211.28;4953284;29;20431;-86
2024/01/04 01:36:22;;;;;;;3.15;1.33;;;;;;;8.71;53.57;99215.03;4959698;28;20073;-87
2024/01/04 01:38:50;;;;;;;4.20;1.67;;;;;;;8.73;53.09;99219.47;4960669;28;20042;-87
2024/01/04 01:41:18;;;;;;;3.38;1.60;;;;;;;8.71;53.20;99219.63;4956875;28;20034;-87
2024/01/04 01:43:46;;;;;;;3.40;1.45;;;;;;;8.73;53.48;99222.19;4952931;28;20058;-86
2024/01/04 01:46:16;;;;;;;4.82;1.58;;;;;;;8.75;53.01;99231.94;4955779;28;20038;-86
2024/01/04 01:48:44;;;;;;;3.28;1.70;;;;;;;8.69;53.46;99233.44;4944045;29;20106;-86
2024/01/04 01:51:13;;;;;;;2.47;1.50;;;;;;;8.71;53.18;99231.41;4953830;28;20050;-85
2024/01/04 01:53:42;;;;;;;3.67;1.38;;;;;;;8.71;53.35;99241.44;4971850;28;20175;-87
2024/01/04 01:56:11;;;;;;;2.97;1.30;;;;;;;8.70;53.51;99258.81;4956769;28;20058;-86
2024/01/04 01:58:39;;;;;;;3.22;1.30;;;;;;;8.68;53.27;99239.03;4954493;28;20047;-86
2024/01/04 02:01:07;;;;;;;2.42;1.13;;;;;;;8.66;53.14;99263.75;4945268;28;20510;-86
2024/01/04 02:03:37;;;;;;;2.58;1.20;;;;;;;8.69;53.24;99281.66;4967338;28;20039;-87
2024/01/04 02:06:06;;;;;;;2.63;1.08;;;;;;;8.66;53.06;99284.72;4943297;28;20042;-86
2024/01/04 02:08:35;;;;;;;3.30;1.20;;;;;;;8.67;53.36;99286.44;4956292;28;20039;-88
2024/01/04 02:11:03;;;;;;;4.18;1.15;;;;;;;8.67;53.54;99297.34;4959281;28;20466;-86
2024/01/04 02:13:31;;;;;;;3.35;1.33;;;;;;;8.67;53.30;99295.44;4960260;28;20498;-87
2024/01/04 02:15:59;;;;;;;2.30;1.30;;;;;;;8.66;53.53;99301.09;4957751;28;20063;-87
2024/01/04 02:18:28;;;;;;;3.08;1.17;;;;;;;8.69;53.56;99319.84;4961307;28;20115;-86
2024/01/04 02:20:57;;;;;;;2.00;1.20;;;;;;;8.67;53.39;99317.28;4950762;28;20101;-86
2024/01/04 02:23:27;;;;;;;3.58;1.40;;;;;;;8.71;53.64;99339.63;4959475;28;20065;-86
2024/01/04 02:25:55;;;;;;;3.03;1.80;;;;;;;8.69;53.41;99339.78;4956170;28;20043;-86
2024/01/04 02:28:23;;;;;;;3.42;1.45;;;;;;;8.67;53.53;99336.34;4947635;28;20757;-86
2024/01/04 02:30:52;;;;;;;2.55;1.38;;;;;;;8.67;53.78;99346.44;4951385;29;20046;-87
2024/01/04 02:33:20;;;;;;;2.95;1.50;;;;;;;8.67;53.53;99368.25;4954027;28;20050;-87
2024/01/04 02:35:48;;;;;;;2.10;1.45;;;;;;;8.68;53.23;99369.94;4943136;29;20492;-86
2024/01/04 02:38:16;;;;;;;3.08;1.33;;;;;;;8.70;53.64;99381.56;4957467;28;20134;-87
2024/01/04 02:40:46;;;;;;;2.40;1.33;;;;;;;8.69;53.21;99375.25;4955914;28;20092;-86
2024/01/04 02:43:14;;;;;;;3.15;1.17;;;;;;;8.67;53.53;99384.63;4976777;28;20051;-87
2024/01/04 02:45:42;;;;;;;2.50;1.38;;;;;;;8.67;53.65;99385.44;4951898;28;20514;-86
2024/01/04 02:48:10;;;;;;;4.97;1.48;;;;;;;8.69;53.21;99385.31;4950623;28;20147;-87
2024/01/04 02:50:42;;;;;;;2.45;1.40;;;;;;;8.69;53.37;99385.31;4950329;28;20093;-87
2024/01/04 02:53:10;;;;;;;2.55;1.30;;;;;;;8.65;53.63;99387.50;4952925;28;20050;-87
2024/01/04 02:55:38;;;;;;;3.50;1.58;;;;;;;8.63;53.69;99386.78;4954966;28;20106;-87
2024/01/04 02:58:11;;;;;;;2.70;1.45;;;;;;;8.68;53.28;99391.75;4943190;29;20122;-87
2024/01/04 03:00:39;;;;;;;2.78;1.40;;;;;;;8.63;53.80;99391.41;4950647;28;20047;-86
2024/01/04 03:03:09;;;;;;;2.00;1.15;;;;;;;8.65;53.57;99392.09;4962675;28;20043;-87
2024/01/04 03:05:37;;;;;;;2.38;1.30;;;;;;;8.64;53.78;99387.66;4961387;28;20043;-86
2024/01/04 03:08:06;;;;;;;3.65;1.58;;;;;;;8.63;53.77;99400.44;4973363;28;20043;-87
2024/01/04 03:10:35;;;;;;;3.30;1.55;;;;;;;8.63;53.90;99411.34;4961022;28;20119;-87
2024/01/04 03:13:03;;;;;;;4.55;1.90;;;;;;;8.63;53.69;99419.53;4960938;28;20043;-86
2024/01/04 03:15:33;;;;;;;3.50;2.22;;;;;;;8.65;53.91;99422.97;4955901;29;20054;-87
2024/01/04 03:18:01;;;;;;;3.80;1.70;;;;;;;8.64;53.64;99429.44;4956408;28;20097;-87
2024/01/04 03:20:29;;;;;;;4.50;1.70;;;;;;;8.63;53.84;99430.44;4958144;28;20061;-87
2024/01/04 03:22:57;;;;;;;3.47;1.60;;;;;;;8.66;53.88;99440.19;4956543;28;20036;-87
2024/01/04 03:25:25;;;;;;;5.00;2.00;;;;;;;8.65;53.78;99438.47;4952276;28;20071;-86
2024/01/04 03:27:53;;;;;;;3.75;1.77;;;;;;;8.65;54.00;99438.47;4970876;28;20055;-87
2024/01/04 03:30:21;;;;;;;2.97;1.90;;;;;;;8.66;53.93;99446.50;4972433;28;20034;-86
2024/01/04 03:32:51;;;;;;;5.28;2.00;;;;;;;8.67;53.82;99445.44;4988956;28;20081;-85
2024/01/04 03:35:19;;;;;;;3.83;1.70;;;;;;;8.67;53.89;99445.44;4989151;28;20085;-86
2024/01/04 03:37:47;;;;;;;3.70;1.90;;;;;;;8.68;53.95;99457.22;4982839;28;20396;-86
2024/01/04 03:40:15;;;;;;;3.75;1.80;;;;;;;8.68;53.95;99449.91;4986637;28;20051;-86
2024/01/04 03:42:46;;;;;;;6.30;2.10;;;;;;;8.68;53.87;99462.69;4990559;28;20057;-86
2024/01/04 03:45:14;;;;;;;3.70;1.80;;;;;;;8.67;53.39;99459.09;4974925;28;20259;-86
2024/01/04 03:47:42;;;;;;;3.40;1.65;;;;;;;8.66;53.89;99465.59;4970345;28;20051;-86
2024/01/04 03:50:12;;;;;;;4.60;1.70;;;;;;;8.68;53.80;99462.69;4992119;28;20066;-86
2024/01/04 03:52:40;;;;;;;4.35;1.90;;;;;;;8.66;53.33;99462.00;4990986;28;20054;-85
2024/01/04 03:55:08;;;;;;;4.03;1.60;;;;;;;8.66;53.89;99462.00;4977058;28;20046;-86
2024/01/04 03:57:36;;;;;;;4.45;1.83;;;;;;;8.67;53.71;99472.72;4994949;28;20050;-86
2024/01/04 04:00:06;;;;;;;6.57;1.75;;;;;;;8.64;53.80;99481.25;4975596;28;20041;-87
2024/01/04 04:02:38;;;;;;;4.05;1.52;;;;;;;8.66;53.76;99487.41;4990876;28;20077;-86
2024/01/04 04:05:07;;;;;;;5.30;2.08;;;;;;;8.66;53.69;99486.53;4968904;28;20051;-86
2024/01/04 04:07:36;;;;;;;4.20;1.38;;;;;;;8.67;53.48;99494.53;4971447;28;20110;-85
2024/01/04 04:10:06;;;;;;;3.72;1.77;;;;;;;8.67;53.47;99493.72;4974696;28;20073;-87
2024/01/04 04:12:34;;;;;;;3.42;1.73;;;;;;;8.65;53.65;99495.75;4967684;28;20058;-87
2024/01/04 04:15:02;;;;;;;5.50;1.90;;;;;;;8.66;53.46;99497.47;4954149;29;20515;-86
2024/01/04 04:17:35;;;;;;;4.57;1.77;;;;;;;8.66;53.55;99503.78;4955618;29;20054;-87
2024/01/04 04:20:04;;;;;;;4.30;1.77;;;;;;;8.69;53.25;99514.34;4966587;28;20055;-86
2024/01/04 04:22:34;;;;;;;2.95;1.63;;;;;;;8.69;53.74;99516.22;4959504;28;20575;-86
2024/01/04 04:25:03;;;;;;;4.90;1.95;;;;;;;8.69;53.29;99513.50;4959177;28;20099;-87
2024/01/04 04:27:31;;;;;;;4.30;1.90;;;;;;;8.70;53.43;99526.13;4950738;28;20047;-86
2024/01/04 04:29:59;;;;;;;3.67;1.92;;;;;;;8.70;53.04;99512.47;4959065;28;20050;-87
2024/01/04 04:32:30;;;;;;;3.90;2.10;;;;;;;8.69;53.20;99518.94;4959092;28;20471;-87
2024/01/04 04:35:01;;;;;;;5.28;1.83;;;;;;;8.69;53.58;99528.00;4950601;28;20047;-86
2024/01/04 04:37:29;;;;;;;3.92;1.92;;;;;;;8.67;53.26;99532.72;4951312;28;20521;-86
2024/01/04 04:40:00;;;;;;;4.53;1.90;;;;;;;8.69;53.52;99532.59;4953471;28;20093;-87
2024/01/04 04:42:29;;;;;;;5.25;2.08;;;;;;;8.67;53.49;99537.34;4956375;28;20054;-87
2024/01/04 04:44:59;;;;;;;4.85;2.00;;;;;;;8.67;53.42;99530.00;4949500;28;20125;-86
2024/01/04 04:47:29;;;;;;;3.47;1.65;;;;;;;8.67;53.63;99543.63;4949212;29;20054;-86
2024/01/04 04:49:58;;;;;;;4.45;1.52;;;;;;;8.65;53.07;99544.81;4957237;28;20554;-86
2024/01/04 04:52:26;;;;;;;4.53;1.88;;;;;;;8.64;53.17;99540.38;4953872;28;20047;-87
2024/01/04 04:54:54;;;;;;;3.08;1.85;;;;;;;8.63;53.30;99542.25;4942111;29;20425;-87
2024/01/04 04:57:22;;;;;;;4.95;2.20;;;;;;;8.63;53.31;99534.06;4968093;28;20078;-85
2024/01/04 04:59:52;;;;;;;4.38;2.35;;;;;;;8.64;53.34;99540.38;4954422;28;20130;-86
2024/01/04 05:02:20;;;;;;;4.10;2.08;;;;;;;8.63;53.43;99539.53;4966551;28;20522;-86
2024/01/04 05:04:48;;;;;;;4.20;2.13;;;;;;;8.62;53.65;99548.72;4956036;28;20043;-86
2024/01/04 05:07:16;;;;;;;4.18;1.95;;;;;;;8.63;53.18;99546.84;4972136;28;20046;-85
2024/01/04 05:09:44;;;;;;;4.32;1.75;;;;;;;8.63;53.32;99549.56;4973231;28;20051;-86
2024/01/04 05:12:12;;;;;;;4.55;2.08;;;;;;;8.59;53.06;99542.69;4972356;28;20050;-86
2024/01/04 05:14:40;;;;;;;3.83;2.00;;;;;;;8.60;53.43;99549.88;4951518;29;20078;-86
2024/01/04 05:17:10;;;;;;;4.85;1.75;;;;;;;8.60;53.60;99555.31;4969610;28;20054;-86
2024/01/04 05:19:38;;;;;;;4.28;2.00;;;;;;;8.59;53.06;99567.22;4950544;28;20444;-86
2024/01/04 05:22:06;;;;;;;3.92;1.95;;;;;;;8.58;53.34;99562.81;4973547;28;20043;-86
2024/01/04 05:24:39;;;;;;;3.42;1.92;;;;;;;8.59;53.12;99572.69;4973609;28;20042;-85
2024/01/04 05:27:07;;;;;;;3.72;1.90;;;;;;;8.59;53.17;99586.31;4955932;28;20039;-86
2024/01/04 05:29:35;;;;;;;2.83;1.67;;;;;;;8.61;53.04;99584.31;4955835;28;20047;-86
2024/01/04 05:32:06;;;;;;;4.47;2.00;;;;;;;8.59;53.58;99589.06;4972590;28;20074;-86
2024/01/04 05:34:36;;;;;;;4.38;2.13;;;;;;;8.59;53.33;99589.06;4956559;28;20066;-86
2024/01/04 05:37:04;;;;;;;5.07;2.22;;;;;;;8.58;53.48;99595.56;4973053;28;20526;-86
2024/01/04 05:39:32;;;;;;;4.53;2.10;;;;;;;8.59;53.60;99591.78;4955621;28;20043;-86
2024/01/04 05:42:00;;;;;;;4.55;1.92;;;;;;;8.58;53.63;99598.28;4940994;29;20053;-86
2024/01/04 05:44:29;;;;;;;3.30;1.70;;;;;;;8.59;53.66;99608.16;4964901;28;20125;-86
2024/01/04 05:46:57;;;;;;;5.43;1.90;;;;;;;8.58;53.38;99606.44;4955988;28;20043;-86
2024/01/04 05:49:25;;;;;;;5.63;1.80;;;;;;;8.55;53.47;99601.28;4955224;28;20046;-86
2024/01/04 05:51:54;;;;;;;4.43;2.10;;;;;;;8.57;53.14;99602.00;4947884;28;20054;-86
2024/01/04 05:54:22;;;;;;;3.00;1.70;;;;;;;8.58;53.70;99617.38;4940399;28;20075;-86
2024/01/04 05:56:51;;;;;;;3.75;1.98;;;;;;;8.55;53.48;99612.19;4956686;28;20422;-87
2024/01/04 05:59:24;;;;;;;4.68;1.70;;;;;;;8.58;53.47;99622.81;4945404;29;20047;-86
2024/01/04 06:01:52;;;;;;;4.45;1.80;;;;;;;8.55;53.61;99626.69;4951604;28;20043;-86
2024/01/04 06:04:21;;;;;;;3.05;1.50;;;;;;;8.55;53.58;99637.59;4955289;28;20058;-86
2024/01/04 06:06:49;;;;;;;3.55;1.50;;;;;;;8.55;53.22;99643.06;4961333;28;20046;-87
2024/01/04 06:09:20;;;;;;;4.28;1.73;;;;;;;8.56;53.46;99658.41;4952226;28;20052;-86
2024/01/04 06:11:50;;;;;;;3.35;1.45;;;;;;;8.54;53.49;99663.16;4966423;28;20476;-87
2024/01/04 06:14:20;;;;;;;3.20;1.20;;;;;;;8.54;53.48;99657.69;4950598;28;20048;-86
2024/01/04 06:16:47;;;;;;;2.25;1.15;;;;;;;8.54;53.36;99662.28;4970898;28;20050;-85
2024/01/04 06:19:47;;;;;;;3.38;1.20;;;;;;;8.55;53.31;99662.16;4956615;28;20035;-85
2024/01/04 06:22:19;;;;;;;;;;;;;;;8.25;54.01;99676.91;4940889;28;20058;-84
2024/01/04 06:24:48;;;;;;;2.22;0.90;;;;;;;8.46;53.46;99671.22;4956223;28;19922;-85
2024/01/04 06:27:16;;;;;;;2.05;0.90;;;;;;;8.49;53.46;99675.53;4955688;28;20129;-85
2024/01/04 06:29:45;;;;;;;1.55;1.00;;;;;;;8.47;53.36;99666.63;4973317;28;20039;-86
2024/01/04 06:32:13;;;;;;;1.58;0.75;;;;;;;8.43;53.20;99685.16;4955281;28;20047;-86
2024/01/04 06:34:41;;;;;;;1.88;1.00;;;;;;;8.44;53.10;99689.59;4960832;28;20035;-85
2024/01/04 06:37:09;;;;;;;2.90;1.17;;;;;;;8.43;53.53;99689.75;4957700;28;20047;-86
2024/01/04 06:39:38;;;;;;;1.95;1.00;;;;;;;8.42;53.52;99693.50;4948753;28;20116;-85
2024/01/04 06:42:07;;;;;;;1.98;1.10;;;;;;;8.44;53.34;99707.81;4944107;28;20128;-86
2024/01/04 06:44:36;;;;;;;1.38;0.80;;;;;;;8.41;53.11;99713.59;4962304;28;20043;-85
2024/01/04 06:47:14;;;;;;;3.03;1.10;;;;;;;8.40;53.45;99720.03;4952289;28;20125;-85
2024/01/04 06:49:43;;;;;;;1.95;1.00;;;;;;;8.40;53.51;99714.59;4949982;29;20119;-85
2024/01/04 06:52:12;;;;;;;2.40;1.10;;;;;;;8.39;53.69;99724.63;4971172;28;20118;-85
2024/01/04 06:54:40;;;;;;;2.42;1.35;;;;;;;8.40;53.19;99728.22;4971921;28;20044;-85
2024/01/04 06:57:09;;;;;;;1.83;1.30;;;;;;;8.39;53.55;99730.09;4958375;28;20043;-86
2024/01/04 06:59:37;;;;;;;1.20;0.90;;;;;;;8.40;53.42;99736.41;4959737;28;20088;-85
2024/01/04 07:02:06;;;;;;;1.50;0.90;;;;;;;8.39;53.35;99732.81;4957218;28;20048;-86
2024/01/04 07:04:34;;;;;;;1.35;0.80;;;;;;;8.37;53.10;99726.66;4950804;28;20413;-85
2024/01/04 07:07:02;;;;;;;2.05;1.10;;;;;;;8.39;53.33;99737.41;4955811;28;20051;-86
2024/01/04 07:09:31;;;;;;;2.03;0.80;;;;;;;8.39;53.15;99734.69;4951196;28;20035;-85
2024/01/04 07:11:59;;;;;;;1.77;0.90;;;;;;;8.34;53.25;99735.97;4963795;28;20499;-86
2024/01/04 07:14:29;;;;;;;2.50;1.00;;;;;;;8.37;53.16;99747.59;4974547;28;20054;-84
2024/01/04 07:16:59;;;;;;;1.42;0.90;;;;;;;8.36;53.31;99734.97;4973076;28;20042;-85
2024/01/04 07:19:27;;;;;;;0.65;0.60;;;;;;;8.32;53.00;99740.72;4966012;28;20078;-85
2024/01/04 07:21:56;;;;;;;1.75;0.80;;;;;;;8.36;53.07;99746.72;4951103;29;20578;-85
2024/01/04 07:24:24;;;;;;;1.00;0.70;;;;;;;8.32;52.64;99746.19;4961211;28;20120;-85
2024/01/04 07:26:52;;;;;;;1.25;0.90;;;;;;;8.36;53.06;99754.03;4970938;28;20047;-85
2024/01/04 07:29:20;;;;;;;2.40;1.20;;;;;;;8.32;52.75;99751.63;4950197;28;20042;-86
2024/01/04 07:31:50;;;;;;;1.27;0.80;;;;;;;8.34;52.77;99757.78;4950065;28;20640;-85
2024/01/04 07:34:18;;;;;;;1.17;0.82;;;;;;;8.32;52.99;99759.81;4974981;28;20054;-85
2024/01/04 07:36:46;;;;;;;1.63;0.80;;;;;;;8.34;52.94;99768.69;4959083;28;20074;-85
2024/01/04 07:39:14;;;;;;;1.85;0.90;;;;;;;8.33;52.80;99772.44;4947263;28;20067;-86
2024/01/04 07:41:43;;;;;;;2.08;1.02;;;;;;;8.34;52.88;99776.03;4956108;28;20086;-85
2024/01/04 07:44:11;;;;;;;1.88;0.90;;;;;;;8.34;52.92;99786.94;4947393;28;20039;-86
2024/01/04 07:46:39;;;;;;;1.63;1.00;;;;;;;8.34;52.71;99792.38;4950109;28;20043;-85
2024/01/04 07:49:09;;;;;;;1.77;1.10;;;;;;;8.32;52.93;99797.97;4955076;28;20042;-85
2024/01/04 07:51:38;;;;;;;1.75;1.08;;;;;;;8.34;52.75;99798.66;4956345;28;20483;-85
2024/01/04 07:54:06;;;;;;;2.75;1.38;;;;;;;8.33;53.11;99804.28;4957965;28;20086;-85
2024/01/04 07:56:34;;;;;;;1.67;1.17;;;;;;;8.35;52.92;99804.97;4950956;28;20050;-85
2024/01/04 07:59:02;;;;;;;1.77;1.20;;;;;;;8.34;52.79;99816.91;4955617;28;20122;-85
2024/01/04 08:01:30;;;;;;;2.28;1.15;;;;;;;8.34;52.99;99815.03;4952642;28;20053;-85
2024/01/04 08:03:59;;;;;;;2.58;1.10;;;;;;;8.34;53.33;99822.38;4950155;29;20119;-84
2024/01/04 08:06:28;;;;;;;3.70;1.38;;;;;;;8.34;53.22;99823.19;4956132;28;20427;-84
2024/01/04 08:08:57;;;;;;;1.95;1.23;;;;;;;8.35;53.10;99829.53;4954272;28;20042;-85
2024/01/04 08:11:25;;;;;;;3.20;1.20;;;;;;;8.36;53.44;99828.50;4955809;28;20089;-85
2024/01/04 08:13:53;;;;;;;2.58;1.33;;;;;;;8.33;53.32;99818.78;4957842;28;20122;-85
2024/01/04 08:16:22;;;;;;;2.75;1.25;;;;;;;8.36;53.34;99827.66;4963164;28;20680;-86
2024/01/04 08:19:07;;;;;;;3.47;1.30;;;;;;;8.36;53.16;99831.25;4957680;28;20103;-86
2024/01/04 08:21:38;;;;;;;2.38;1.20;;;;;;;8.36;53.40;99833.09;4945996;28;20051;-87
2024/01/04 08:24:16;;;;;;;2.97;1.55;;;;;;;8.34;53.17;99836.84;4970659;28;20081;-86
2024/01/04 08:26:45;;;;;;;1.42;1.10;;;;;;;8.37;53.37;99834.84;4958443;28;20059;-87
2024/01/04 08:29:16;;;;;;;2.55;1.20;;;;;;;8.36;53.23;99831.25;4955569;28;20046;-86
2024/01/04 08:31:44;;;;;;;3.38;1.20;;;;;;;8.38;53.43;99840.16;4973229;28;20085;-86
2024/01/04 08:34:12;;;;;;;2.53;1.30;;;;;;;8.39;53.53;99843.75;4958654;28;20051;-86
2024/01/04 08:36:42;;;;;;;2.90;1.42;;;;;;;8.40;53.35;99845.47;4974112;28;20112;-85
2024/01/04 08:39:11;;;;;;;3.03;1.20;;;;;;;8.38;53.68;99850.19;4969378;28;20264;-86
2024/01/04 08:41:39;;;;;;;2.92;1.40;;;;;;;8.41;53.67;99856.22;4945519;29;20043;-86
2024/01/04 08:44:08;;;;;;;3.00;1.52;;;;;;;8.40;53.54;99849.06;4970018;28;20051;-87
2024/01/04 08:46:37;;;;;;;3.47;1.38;;;;;;;8.42;53.23;99855.22;4947265;28;20105;-87
2024/01/04 08:49:07;;;;;;;2.58;1.30;;;;;;;8.40;53.20;99859.97;4967182;28;20050;-87
2024/01/04 08:51:36;;;;;;;2.80;1.40;;;;;;;8.43;53.30;99853.31;4951173;28;20097;-87
2024/01/04 08:54:05;;;;;;;3.63;1.50;;;;;;;8.43;53.28;99858.78;4955331;28;20637;-87
2024/01/04 08:56:35;;;;;;;2.65;1.35;;;;;;;8.44;53.48;99857.78;4952588;28;20566;-87
2024/01/04 08:59:04;;;;;;;3.13;1.58;;;;;;;8.43;53.79;99864.22;4972740;28;20117;-87
2024/01/04 09:01:32;;;;;;;2.30;1.40;;;;;;;8.46;53.68;99874.88;4970438;28;20063;-86
2024/01/04 09:04:01;;;;;;;2.20;1.50;;;;;;;8.46;53.61;99877.59;4962304;28;20186;-87
2024/01/04 09:06:31;;;;;;;2.70;1.48;;;;;;;8.44;53.87;99875.00;4969270;28;20050;-86
2024/01/04 09:08:59;;;;;;;3.53;1.77;;;;;;;8.47;53.64;99876.59;4952855;29;20122;-87
2024/01/04 09:11:29;;;;;;;2.63;1.67;;;;;;;8.46;53.23;99867.53;4947374;29;20122;-87
2024/01/04 09:13:58;;;;;;;3.42;1.60;;;;;;;8.46;53.80;99872.13;4961940;28;20038;-87
2024/01/04 09:16:26;;;;;;;3.25;1.60;;;;;;;8.47;53.63;99879.31;4968765;28;20058;-87
2024/01/04 09:18:54;;;;;;;4.40;1.70;;;;;;;8.48;53.88;99881.91;4957696;28;20633;-86
2024/01/04 09:21:22;;;;;;;5.90;1.88;;;;;;;8.47;53.43;99879.31;4946536;28;20065;-87
2024/01/04 09:23:52;;;;;;;4.45;1.85;;;;;;;8.49;53.41;99889.09;4951428;28;20039;-87
2024/01/04 09:26:20;;;;;;;5.90;1.90;;;;;;;8.48;53.28;99883.78;4955955;28;20053;-87
2024/01/04 09:28:50;;;;;;;3.63;1.60;;;;;;;8.48;53.71;99890.09;4969171;28;20503;-87
2024/01/04 09:31:18;;;;;;;4.93;2.42;;;;;;;8.47;53.78;99893.81;4949707;28;20713;-86
2024/01/04 09:33:46;;;;;;;3.00;1.52;;;;;;;8.49;53.66;99897.25;4967394;28;20051;-88
2024/01/04 09:36:14;;;;;;;3.22;1.70;;;;;;;8.50;53.53;99901.72;4953851;28;20094;-88
2024/01/04 09:38:42;;;;;;;3.88;1.70;;;;;;;8.47;53.35;99901.13;4955853;28;20047;-88
2024/01/04 09:41:24;;;;;;;3.10;1.63;;;;;;;8.51;53.47;99906.13;4946399;28;20051;-87
2024/01/04 09:43:55;;;;;;;2.92;1.50;;;;;;;8.52;53.33;99907.00;4956313;28;20403;-87
2024/01/04 09:46:25;;;;;;;2.72;1.40;;;;;;;8.52;53.22;99910.59;4954685;28;20495;-86
2024/01/04 09:48:59;;;;;;;2.72;1.40;;;;;;;8.53;53.17;99916.91;4974145;28;20471;-87
2024/01/04 09:51:29;;;;;;;3.67;1.63;;;;;;;8.54;53.34;99930.41;4946238;29;20040;-87
2024/01/04 09:53:57;;;;;;;1.40;1.00;;;;;;;8.53;53.28;99933.28;4965050;28;20059;-88
2024/01/04 09:56:28;;;;;;;2.97;1.10;;;;;;;8.54;53.37;99935.84;4947571;28;20469;-87
2024/01/04 09:58:58;;;;;;;2.60;1.00;;;;;;;8.54;53.14;99935.00;4969466;28;20034;-87
2024/01/04 10:01:33;;;;;;;4.90;1.40;;;;;;;8.55;52.98;99939.44;4956019;28;20050;-87
2024/01/04 10:04:07;;;;;;;1.80;1.00;;;;;;;8.57;52.95;99942.91;4954297;29;20051;-87
2024/01/04 10:06:37;;;;;;;1.63;0.90;;;;;;;8.56;53.21;99943.91;4949590;28;20053;-87
2024/01/04 10:09:15;;;;;;;3.65;1.30;;;;;;;8.58;53.00;99942.75;4968646;28;20047;-87
2024/01/04 10:11:56;;;;;;;2.20;1.10;;;;;;;8.57;53.14;99951.94;4957291;28;20042;-87
2024/01/04 10:14:27;;;;;;;2.97;1.20;;;;;;;8.57;53.15;99951.09;4953976;28;20062;-87
2024/01/04 10:16:56;;;;;;;1.75;0.95;;;;;;;8.58;53.27;99950.94;4949162;28;20039;-87
2024/01/04 10:19:24;;;;;;;1.50;0.93;;;;;;;8.60;53.51;99956.22;4960512;28;20489;-87
2024/01/04 10:21:53;;;;;;;1.70;1.10;;;;;;;8.61;53.08;99960.69;4963467;29;20051;-87
2024/01/04 10:24:22;;;;;;;3.58;1.35;;;;;;;8.61;53.23;99957.97;4950844;28;20047;-87
2024/01/04 10:26:55;;;;;;;3.05;1.20;;;;;;;8.67;53.57;99968.31;4951665;28;20553;-87
2024/01/04 10:29:25;;;;;;;2.83;1.50;;;;;;;8.66;53.14;99967.44;4955347;28;20495;-87
2024/01/04 10:32:00;;;;;;;2.47;1.35;;;;;;;8.70;53.81;99968.00;4953876;28;20051;-87
2024/01/04 10:34:29;;;;;;;2.97;1.58;;;;;;;8.67;53.68;99966.41;4958918;28;20050;-88
2024/01/04 10:37:08;;;;;;;2.83;1.42;;;;;;;8.68;53.47;99961.81;4950382;28;20038;-87
2024/01/04 10:39:36;;;;;;;3.58;1.38;;;;;;;8.64;53.50;99968.59;4958439;28;20143;-87
2024/01/04 10:42:05;;;;;;;3.67;1.80;;;;;;;8.66;53.82;99964.72;4959168;28;20537;-86
2024/01/04 10:44:36;;;;;;;2.50;1.60;;;;;;;8.64;53.56;99964.00;4951685;29;20074;-87
2024/01/04 10:47:08;;;;;;;4.30;1.65;;;;;;;8.65;53.95;99960.28;4959316;28;20042;-87
2024/01/04 10:49:40;;;;;;;;;;;;;;;8.39;54.66;99961.84;4939533;29;20062;-86
2024/01/04 10:52:14;;;;;;;2.47;1.60;;;;;;;8.59;53.96;99970.88;4959963;28;19922;-87
2024/01/04 10:54:42;;;;;;;4.57;2.15;;;;;;;8.61;54.06;99957.97;4953930;29;20051;-87
2024/01/04 10:57:12;;;;;;;4.18;2.20;;;;;;;8.59;53.60;99973.59;4971560;28;20070;-87
2024/01/04 10:59:44;;;;;;;3.72;2.28;;;;;;;8.59;54.01;99970.88;4954719;28;20054;-88
2024/01/04 11:02:14;;;;;;;3.55;2.08;;;;;;;8.54;54.13;99967.72;4952029;28;20123;-87
2024/01/04 11:04:44;;;;;;;5.63;2.60;;;;;;;8.55;54.12;99972.19;4950248;28;20047;-86
2024/01/04 11:07:15;;;;;;;4.88;2.42;;;;;;;8.53;54.50;99969.59;4956610;28;20102;-86
2024/01/04 11:09:44;;;;;;;3.78;2.38;;;;;;;8.53;54.34;99966.00;4944760;29;20053;-87
2024/01/04 11:12:14;;;;;;;4.03;2.50;;;;;;;8.53;54.37;99969.59;4962278;28;20049;-86
2024/01/04 11:14:43;;;;;;;4.43;2.42;;;;;;;8.54;54.56;99973.19;4958701;28;20106;-86
2024/01/04 11:17:36;;;;;;;5.90;2.85;;;;;;;8.54;54.93;99963.13;4963140;28;20070;-87
2024/01/04 11:20:21;;;;;;;4.32;2.70;;;;;;;8.53;55.67;99957.81;4954797;29;20047;-87
2024/01/04 11:23:23;;;;;;;5.25;2.95;;;;;;;8.52;55.75;99967.00;4972804;28;20070;-88
2024/01/04 11:26:16;;;;;;;4.82;2.53;;;;;;;8.53;55.59;99955.09;4957900;28;20073;-87
2024/01/04 11:28:45;;;;;;;4.97;2.88;;;;;;;8.47;54.99;99964.72;4974818;28;20045;-86
2024/01/04 11:31:15;;;;;;;4.63;2.65;;;;;;;8.51;54.79;99966.13;4962480;28;20051;-87
2024/01/04 11:33:49;;;;;;;5.03;3.08;;;;;;;8.51;55.19;99977.03;4959957;28;20059;-88
2024/01/04 11:36:19;;;;;;;4.93;2.75;;;;;;;8.49;55.01;99975.47;4969023;28;20086;-86
2024/01/04 11:38:48;;;;;;;4.78;2.60;;;;;;;8.51;54.86;99976.19;4949617;28;20042;-87
2024/01/04 11:41:17;;;;;;;4.05;2.00;;;;;;;8.50;54.96;99966.31;4959427;28;20117;-87
2024/01/04 11:43:45;;;;;;;3.15;1.70;;;;;;;8.48;55.02;99965.56;4974587;28;20046;-87
2024/01/04 11:46:21;;;;;;;3.67;1.75;;;;;;;8.48;55.01;99962.84;4959946;28;20043;-87
2024/01/04 11:48:54;;;;;;;4.93;2.10;;;;;;;8.47;54.85;99966.56;4955226;29;20577;-88
2024/01/04 11:51:34;;;;;;;2.70;1.70;;;;;;;8.47;55.59;99969.31;4958192;28;20139;-88
2024/01/04 11:54:02;;;;;;;2.65;1.65;;;;;;;8.43;55.12;99967.84;4955595;29;20146;-87